createdAt,value
2022-11-14T00:04:01.231Z,3.3
2022-11-14T00:06:27.822Z,3.2
2022-11-14T00:08:54.378Z,3.2
2022-11-14T00:11:21.057Z,3.2
2022-11-14T00:13:47.591Z,3.2
2022-11-14T00:16:12.694Z,3.2
2022-11-14T00:18:39.347Z,3.2
2022-11-14T00:21:06.021Z,3.1
2022-11-14T00:23:32.649Z,3.1
2022-11-14T00:28:25.813Z,3.1
2022-11-14T00:30:52.484Z,3.1
2022-11-14T00:33:19.067Z,3.1
2022-11-14T00:35:45.686Z,3
2022-11-14T00:38:12.312Z,2.9
2022-11-14T00:40:38.936Z,2.8
2022-11-14T00:43:05.557Z,2.7
2022-11-14T00:45:32.159Z,2.6
2022-11-14T00:47:57.473Z,2.5
2022-11-14T00:52:50.585Z,2.3
2022-11-14T00:55:17.201Z,2.2
2022-11-14T00:57:43.804Z,2
2022-11-14T01:00:10.469Z,2
2022-11-14T01:02:37.034Z,2
2022-11-14T01:05:03.659Z,2
2022-11-14T01:07:30.365Z,1.9
2022-11-14T01:09:56.922Z,1.8
2022-11-14T01:12:23.530Z,1.7
2022-11-14T01:17:16.917Z,1.5
2022-11-14T01:19:41.989Z,1.5
2022-11-14T01:22:08.551Z,1.6
2022-11-14T01:24:35.176Z,1.6
2022-11-14T01:27:01.972Z,1.6
2022-11-14T01:29:28.432Z,1.5
2022-11-14T01:31:55.034Z,1.4
2022-11-14T01:34:21.678Z,1.3
2022-11-14T01:36:48.290Z,1.2
2022-11-14T01:41:41.588Z,1
2022-11-14T01:44:08.138Z,1
2022-11-14T01:46:34.833Z,0.9
2022-11-14T01:49:01.388Z,0.8
2022-11-14T01:51:26.511Z,0.8
2022-11-14T01:53:53.237Z,0.8
2022-11-14T01:56:19.751Z,0.8
2022-11-14T01:58:46.489Z,0.9
2022-11-14T02:01:13.030Z,0.8
2022-11-14T02:06:06.257Z,0.7
2022-11-14T02:08:32.866Z,0.7
2022-11-14T02:10:59.541Z,0.7
2022-11-14T02:13:26.119Z,0.7
2022-11-14T02:15:52.809Z,0.7
2022-11-14T02:18:19.358Z,0.6
2022-11-14T02:20:46.003Z,0.5
2022-11-14T02:23:11.119Z,0.5
2022-11-14T02:25:37.738Z,0.5
2022-11-14T02:30:31.046Z,0.5
2022-11-14T02:32:57.684Z,0.5
2022-11-14T02:35:24.218Z,0.5
2022-11-14T02:37:50.856Z,0.6
2022-11-14T02:40:17.478Z,0.6
2022-11-14T02:42:44.123Z,0.6
2022-11-14T02:45:10.748Z,0.6
2022-11-14T02:47:37.338Z,0.6
2022-11-14T02:50:03.965Z,0.7
2022-11-14T02:52:30.604Z,0.7
2022-11-14T02:54:55.770Z,0.7
2022-11-14T02:57:20.859Z,0.8
2022-11-14T02:59:45.995Z,1
2022-11-14T03:02:12.625Z,1.1
2022-11-14T03:04:39.316Z,1.2
2022-11-14T03:07:05.915Z,1.3
2022-11-14T03:09:32.483Z,1.4
2022-11-14T03:11:59.118Z,1.4
2022-11-14T03:14:25.726Z,1.4
2022-11-14T03:19:19.008Z,1.4
2022-11-14T03:21:45.686Z,1.5
2022-11-14T03:24:12.281Z,1.5
2022-11-14T03:26:38.849Z,1.5
2022-11-14T03:29:05.455Z,1.6
2022-11-14T03:31:30.603Z,1.6
2022-11-14T03:33:57.256Z,1.7
2022-11-14T03:36:23.865Z,1.7
2022-11-14T03:38:50.475Z,1.8
2022-11-14T03:43:43.841Z,1.9
2022-11-14T03:46:08.845Z,1.9
2022-11-14T03:48:33.969Z,2
2022-11-14T03:51:00.598Z,2
2022-11-14T03:53:27.236Z,2
2022-11-14T03:55:53.839Z,2.1
2022-11-14T03:58:20.464Z,2.1
2022-11-14T04:00:47.134Z,2
2022-11-14T04:03:13.711Z,2
2022-11-14T04:08:06.967Z,2
2022-11-14T04:10:33.601Z,2
2022-11-14T04:13:00.230Z,1.9
2022-11-14T04:15:26.941Z,1.8
2022-11-14T04:17:53.454Z,1.8
2022-11-14T04:20:18.596Z,1.8
2022-11-14T04:22:45.257Z,1.8
2022-11-14T04:25:11.869Z,1.7
2022-11-14T04:27:38.473Z,1.7
2022-11-14T04:32:31.805Z,1.7
2022-11-14T04:34:58.327Z,1.7
2022-11-14T04:37:25.004Z,1.7
2022-11-14T04:39:51.591Z,1.7
2022-11-14T04:42:18.263Z,1.7
2022-11-14T04:44:44.839Z,1.7
2022-11-14T04:47:11.452Z,1.6
2022-11-14T04:49:38.093Z,1.5
2022-11-14T04:52:03.213Z,1.4
2022-11-14T04:56:56.517Z,1.3
2022-11-14T04:59:23.067Z,1.3
2022-11-14T05:01:49.696Z,1.3
2022-11-14T05:04:16.334Z,1.3
2022-11-14T05:06:43.044Z,1.3
2022-11-14T05:09:09.646Z,1.3
2022-11-14T05:11:36.196Z,1.3
2022-11-14T05:14:02.829Z,1.3
2022-11-14T05:16:29.470Z,1.3
2022-11-14T05:21:22.744Z,1.3
2022-11-14T05:23:47.825Z,1.3
2022-11-14T05:26:14.486Z,1.3
2022-11-14T05:28:41.071Z,1.3
2022-11-14T05:31:07.824Z,1.2
2022-11-14T05:33:34.340Z,1.1
2022-11-14T05:36:00.940Z,1.1
2022-11-14T05:38:27.566Z,1.1
2022-11-14T05:40:54.212Z,1.1
2022-11-14T05:45:47.448Z,1.1
2022-11-14T05:48:14.065Z,1.1
2022-11-14T05:50:40.694Z,1.1
2022-11-14T05:53:07.321Z,1.1
2022-11-14T05:55:32.447Z,1
2022-11-14T05:57:59.125Z,1.1
2022-11-14T06:00:25.684Z,1.1
2022-11-14T06:02:52.310Z,1.1
2022-11-14T06:05:18.936Z,1.1
2022-11-14T06:10:12.256Z,1.1
2022-11-14T06:12:38.823Z,1.1
2022-11-14T06:15:05.438Z,1.1
2022-11-14T06:17:32.064Z,1.1
2022-11-14T06:19:58.685Z,1.2
2022-11-14T06:22:25.325Z,1.3
2022-11-14T06:24:51.978Z,1.3
2022-11-14T06:27:17.054Z,1.4
2022-11-14T06:29:43.690Z,1.4
2022-11-14T06:34:36.966Z,1.5
2022-11-14T06:37:03.659Z,1.5
2022-11-14T06:39:30.281Z,1.5
2022-11-14T06:41:56.885Z,1.4
2022-11-14T06:44:23.478Z,1.4
2022-11-14T06:46:50.110Z,1.4
2022-11-14T06:49:16.695Z,1.3
2022-11-14T06:51:41.834Z,1.3
2022-11-14T06:54:08.452Z,1.3
2022-11-14T06:59:01.739Z,1.5
2022-11-14T07:01:28.491Z,1.6
2022-11-14T07:03:55.160Z,1.8
2022-11-14T07:06:21.661Z,1.8
2022-11-14T07:08:48.335Z,1.9
2022-11-14T07:11:14.825Z,2
2022-11-14T07:13:41.443Z,1.9
2022-11-14T07:16:08.139Z,1.9
2022-11-14T07:18:34.686Z,2.2
2022-11-14T07:21:01.292Z,2.6
2022-11-14T07:23:26.431Z,3
2022-11-14T07:28:18.208Z,2.6
2022-11-14T07:30:43.316Z,2.4
2022-11-14T07:33:10.015Z,2.4
2022-11-14T07:35:36.621Z,2.2
2022-11-14T07:38:03.212Z,2.1
2022-11-14T07:40:29.806Z,2
2022-11-14T07:42:56.438Z,2
2022-11-14T07:45:23.103Z,2.1
2022-11-14T07:47:49.674Z,2.2
2022-11-14T07:50:14.811Z,2.4
2022-11-14T07:52:41.443Z,2.5
2022-11-14T07:55:06.632Z,2.6
2022-11-14T07:57:33.278Z,2.7
2022-11-14T07:59:59.811Z,2.7
2022-11-14T08:02:26.448Z,2.7
2022-11-14T08:04:53.205Z,2.8
2022-11-14T08:07:19.874Z,2.8
2022-11-14T08:12:13.027Z,2.9
2022-11-14T08:17:06.379Z,3.1
2022-11-14T08:19:32.811Z,3.3
2022-11-14T08:21:58.029Z,3.7
2022-11-14T08:24:23.067Z,5.6
2022-11-14T08:26:49.765Z,7.7
2022-11-14T08:29:16.312Z,9.3
2022-11-14T08:31:43.113Z,8.4
2022-11-14T08:36:36.366Z,6.5
2022-11-14T08:41:29.447Z,5.7
2022-11-14T08:43:56.052Z,5.5
2022-11-14T08:46:22.710Z,5.3
2022-11-14T08:48:49.454Z,5.3
2022-11-14T08:51:15.932Z,5.3
2022-11-14T08:53:42.551Z,5.2
2022-11-14T08:56:07.671Z,5.2
2022-11-14T09:01:01.095Z,5.1
2022-11-14T09:05:54.160Z,5
2022-11-14T09:08:20.802Z,5
2022-11-14T09:10:47.407Z,5
2022-11-14T09:13:14.032Z,5
2022-11-14T09:15:40.680Z,5
2022-11-14T09:18:07.296Z,5
2022-11-14T09:20:33.912Z,5
2022-11-14T09:23:00.608Z,4.9
2022-11-14T09:25:27.357Z,4.9
2022-11-14T09:27:52.369Z,4.9
2022-11-14T09:30:18.927Z,4.8
2022-11-14T09:32:45.528Z,4.9
2022-11-14T09:35:12.174Z,4.8
2022-11-14T09:37:38.852Z,4.8
2022-11-14T09:40:05.505Z,4.8
2022-11-14T09:42:32.020Z,4.9
2022-11-14T09:44:58.810Z,4.9
2022-11-14T09:47:25.266Z,5
2022-11-14T09:49:51.898Z,5
2022-11-14T09:52:17.031Z,5
2022-11-14T09:54:42.159Z,5.1
2022-11-14T09:57:08.777Z,5.1
2022-11-14T09:59:35.424Z,5.2
2022-11-14T10:02:02.012Z,5.3
2022-11-14T10:04:28.642Z,5.4
2022-11-14T10:06:55.272Z,5.5
2022-11-14T10:09:21.899Z,5.6
2022-11-14T10:11:48.518Z,5.6
2022-11-14T10:14:15.135Z,5.7
2022-11-14T10:16:41.896Z,5.8
2022-11-14T10:19:06.900Z,5.9
2022-11-14T10:21:32.030Z,6
2022-11-14T10:23:58.642Z,6.1
2022-11-14T10:26:25.277Z,6.2
2022-11-14T10:28:51.908Z,6.3
2022-11-14T10:31:18.534Z,6.4
2022-11-14T10:33:45.138Z,6.5
2022-11-14T10:36:11.778Z,6.8
2022-11-14T10:38:38.393Z,6.9
2022-11-14T10:41:05.005Z,7.1
2022-11-14T10:43:31.647Z,7.2
2022-11-14T10:45:58.261Z,7.3
2022-11-14T10:48:24.877Z,7.4
2022-11-14T10:50:51.508Z,7.4
2022-11-14T10:53:16.631Z,7.6
2022-11-14T10:55:43.259Z,7.7
2022-11-14T10:58:09.884Z,7.9
2022-11-14T11:00:36.513Z,8
2022-11-14T11:03:03.123Z,8
2022-11-14T11:05:29.747Z,8
2022-11-14T11:07:56.369Z,8
2022-11-14T11:10:22.993Z,8.1
2022-11-14T11:12:49.692Z,8.1
2022-11-14T11:15:16.343Z,8.1
2022-11-14T11:17:42.875Z,8.1
2022-11-14T11:20:09.499Z,8.1
2022-11-14T11:22:36.114Z,8.1
2022-11-14T11:25:01.240Z,8
2022-11-14T11:27:27.880Z,8.1
2022-11-14T11:29:54.495Z,8.2
2022-11-14T11:32:21.110Z,8.4
2022-11-14T11:34:47.796Z,8.7
2022-11-14T11:37:14.367Z,9.3
2022-11-14T11:39:40.979Z,9.7
2022-11-14T11:42:07.623Z,9.9
2022-11-14T11:44:34.471Z,9.9
2022-11-14T11:47:01.004Z,10.1
2022-11-14T11:49:27.460Z,10.2
2022-11-14T11:51:54.106Z,10.4
2022-11-14T11:54:20.897Z,10.5
2022-11-14T11:56:45.999Z,10.6
2022-11-14T11:59:12.471Z,10.7
2022-11-14T12:01:39.104Z,10.9
2022-11-14T12:04:05.755Z,10.9
2022-11-14T12:06:32.335Z,11
2022-11-14T12:08:58.969Z,11
2022-11-14T12:11:25.595Z,11.1
2022-11-14T12:13:52.215Z,11.1
2022-11-14T12:16:18.839Z,11.2
2022-11-14T12:18:45.463Z,11.2
2022-11-14T12:21:12.094Z,11.2
2022-11-14T12:23:38.708Z,11.1
2022-11-14T12:26:05.333Z,11.2
2022-11-14T12:28:30.455Z,11.3
2022-11-14T12:30:57.072Z,11.5
2022-11-14T12:33:23.691Z,11.5
2022-11-14T12:35:50.462Z,11.5
2022-11-14T12:40:43.578Z,11.7
2022-11-14T12:43:10.195Z,11.7
2022-11-14T12:45:36.805Z,11.8
2022-11-14T12:48:03.446Z,11.9
2022-11-14T12:50:30.079Z,12
2022-11-14T12:52:56.707Z,12.5
2022-11-14T12:55:23.312Z,12.9
2022-11-14T13:00:16.564Z,13.5
2022-11-14T13:02:41.683Z,13.6
2022-11-14T13:05:08.309Z,13.6
2022-11-14T13:07:34.934Z,13.8
2022-11-14T13:10:01.555Z,13.9
2022-11-14T13:12:28.169Z,14.1
2022-11-14T13:14:54.794Z,14.3
2022-11-14T13:17:21.427Z,14.4
2022-11-14T13:19:48.040Z,14.2
2022-11-14T13:22:14.677Z,14.3
2022-11-14T13:24:41.325Z,14.3
2022-11-14T13:27:07.920Z,14.3
2022-11-14T13:29:34.544Z,14.3
2022-11-14T13:32:01.223Z,14.2
2022-11-14T13:34:27.794Z,14.2
2022-11-14T13:36:52.913Z,14.3
2022-11-14T13:39:19.685Z,14.3
2022-11-14T13:41:46.284Z,14.3
2022-11-14T13:44:12.786Z,14.3
2022-11-14T13:46:39.443Z,14.4
2022-11-14T13:49:06.028Z,14.4
2022-11-14T13:53:59.262Z,14.4
2022-11-14T13:58:52.517Z,14.4
2022-11-14T14:01:19.251Z,14.4
2022-11-14T14:03:45.756Z,14.3
2022-11-14T14:06:12.390Z,14.2
2022-11-14T14:08:37.512Z,14.2
2022-11-14T14:11:04.141Z,14.2
2022-11-14T14:13:30.768Z,14.2
2022-11-14T14:15:57.389Z,14.2
2022-11-14T14:18:24.007Z,14
2022-11-14T14:23:17.262Z,13.7
2022-11-14T14:25:42.383Z,13.7
2022-11-14T14:30:35.643Z,13.5
2022-11-14T14:33:00.762Z,13.4
2022-11-14T14:35:27.387Z,13.3
2022-11-14T14:37:54.010Z,13.2
2022-11-14T14:42:47.247Z,13.3
2022-11-14T14:45:13.880Z,13.2
2022-11-14T14:47:40.501Z,13.2
2022-11-14T14:50:07.124Z,13.2
2022-11-14T14:52:33.744Z,13.2
2022-11-14T14:55:00.369Z,13.1
2022-11-14T14:57:26.997Z,13
2022-11-14T14:59:53.623Z,13
2022-11-14T15:02:20.238Z,12.9
2022-11-14T15:07:13.510Z,12.7
2022-11-14T15:09:38.757Z,12.6
2022-11-14T15:12:05.250Z,12.5
2022-11-14T15:14:30.390Z,12.4
2022-11-14T15:16:57.012Z,12.3
2022-11-14T15:19:23.621Z,12.2
2022-11-14T15:21:50.248Z,12.1
2022-11-14T15:26:43.499Z,12.1
2022-11-14T15:29:10.110Z,12.2
2022-11-14T15:31:36.737Z,12.2
2022-11-14T15:36:30.016Z,12.3
2022-11-14T15:38:56.601Z,12.4
2022-11-14T15:41:23.239Z,12.5
2022-11-14T15:43:49.847Z,12.6
2022-11-14T15:46:15.040Z,12.7
2022-11-14T15:51:08.336Z,13
2022-11-14T15:53:34.978Z,13
2022-11-14T15:56:01.481Z,13
2022-11-14T15:58:28.108Z,13
2022-11-14T16:00:54.711Z,13
2022-11-14T16:03:21.350Z,13
2022-11-14T16:05:47.982Z,12.9
2022-11-14T16:08:14.611Z,12.8
2022-11-14T16:13:07.830Z,12.8
2022-11-14T16:15:34.473Z,12.9
2022-11-14T16:20:27.716Z,12.6
2022-11-14T16:22:52.837Z,12.5
2022-11-14T16:32:39.323Z,12.3
2022-11-14T16:35:05.958Z,12.2
2022-11-14T16:39:59.200Z,12.1
2022-11-14T16:49:45.699Z,11.8
2022-11-14T16:57:05.560Z,11.4
2022-11-14T16:59:30.689Z,11.2
2022-11-14T17:04:23.936Z,10.9
2022-11-14T17:09:17.185Z,10.3
2022-11-14T17:16:37.055Z,9.6
2022-11-14T17:19:03.680Z,9.4
2022-11-14T17:21:30.300Z,9.3
2022-11-14T17:23:56.924Z,9.1
2022-11-14T17:26:23.537Z,9
2022-11-14T17:28:50.165Z,8.8
2022-11-14T17:33:41.919Z,8.6
2022-11-14T17:41:01.793Z,8.3
2022-11-14T17:43:28.412Z,8.3
2022-11-14T17:45:55.048Z,8.3
2022-11-14T17:48:21.651Z,8.2
2022-11-14T17:53:14.933Z,7.9
2022-11-14T17:58:08.151Z,7.6
2022-11-14T18:03:01.397Z,7.5
2022-11-14T18:07:53.252Z,7.3
2022-11-14T18:10:19.766Z,7.3
2022-11-14T18:12:46.390Z,7.3
2022-11-14T18:15:13.126Z,7.3
2022-11-14T18:17:39.636Z,7.3
2022-11-14T18:27:26.169Z,7.4
2022-11-14T18:32:19.380Z,7.3
2022-11-14T18:46:59.127Z,7.5
2022-11-14T18:56:44.129Z,7.5
2022-11-14T19:01:37.437Z,7.6
2022-11-14T19:08:57.836Z,7.8
2022-11-14T19:16:17.181Z,7.7
2022-11-14T19:26:03.597Z,8.1
2022-11-14T19:30:56.844Z,8
2022-11-14T19:35:48.592Z,8.1
2022-11-14T19:38:16.315Z,8
2022-11-14T19:45:35.105Z,8
2022-11-14T19:48:01.716Z,7.9
2022-11-14T20:00:14.845Z,8
2022-11-14T20:10:01.425Z,7.9
2022-11-14T20:14:53.131Z,8
2022-11-14T20:19:46.359Z,8
2022-11-14T20:29:32.809Z,8
2022-11-14T20:36:52.731Z,8.2
2022-11-14T20:44:12.581Z,8.2
2022-11-14T20:46:38.205Z,8.3
2022-11-14T20:51:31.499Z,8.4
2022-11-14T20:53:57.640Z,8.5
2022-11-14T20:58:50.796Z,8.5
2022-11-14T21:03:44.136Z,8.5
2022-11-14T21:13:30.540Z,8.5
2022-11-14T21:15:57.700Z,8.5
2022-11-14T21:28:10.386Z,8.5
2022-11-14T21:35:29.405Z,8.5
2022-11-14T21:42:48.515Z,8.4
2022-11-14T21:52:35.014Z,8.3
2022-11-14T21:57:28.256Z,8.3
2022-11-14T21:59:55.237Z,8.3
2022-11-14T22:02:21.560Z,8.2
2022-11-14T22:04:48.519Z,8.2
2022-11-14T22:07:14.751Z,8.4
2022-11-14T22:12:06.549Z,8.5
2022-11-14T22:26:46.242Z,8.7
2022-11-14T22:38:59.444Z,8.7
2022-11-14T22:41:24.535Z,8.6
2022-11-14T22:46:17.762Z,8.5
2022-11-14T22:48:44.535Z,8.5
2022-11-14T22:56:04.228Z,8.4
2022-11-14T23:00:57.454Z,8.4
2022-11-14T23:03:24.087Z,8.4
2022-11-14T23:05:50.752Z,8.4
2022-11-14T23:08:17.338Z,8.3
2022-11-14T23:10:44.005Z,8.3
2022-11-14T23:15:35.702Z,8.3
2022-11-14T23:25:22.209Z,8.2
2022-11-14T23:37:34.028Z,8.2
2022-11-14T23:40:00.457Z,8.2
2022-11-14T23:47:18.833Z,8.2
2022-11-14T23:49:43.978Z,8.2
2022-11-14T23:52:10.586Z,8.2
2022-11-14T23:54:37.211Z,8.2
2022-11-14T23:57:03.863Z,8.2
2022-11-14T23:59:30.551Z,8.2
